Time;durP1;ratioP1;P1;durP2;ratioP2;P2;SDS_P1;SDS_P2;PMS_P1;PMS_P2;Temp;Humidity;BMP_temperature;BMP_pressure;BME280_temperature;BME280_humidity;BME280_pressure;Samples;Min_cycle;Max_cycle;Signal;HPM_P1;HPM_P2
2023/07/06 00:00:29;;;;;;;11.73;3.90;;;14.80;99.90;;;;;;4999226;28;20034;-68
2023/07/06 00:02:55;;;;;;;15.93;4.55;;;14.70;99.90;;;;;;5009971;28;20484;-67
2023/07/06 00:05:22;;;;;;;15.05;4.95;;;14.70;99.90;;;;;;4999053;28;20128;-67
2023/07/06 00:07:48;;;;;;;14.55;4.35;;;14.70;99.90;;;;;;5003980;28;20022;-66
2023/07/06 00:10:14;;;;;;;14.55;4.50;;;14.70;99.90;;;;;;5005834;28;20129;-66
2023/07/06 00:12:39;;;;;;;10.43;4.53;;;14.60;99.90;;;;;;4997423;28;20027;-66
2023/07/06 00:15:05;;;;;;;12.90;4.90;;;14.60;99.90;;;;;;5008526;28;20030;-66
2023/07/06 00:17:31;;;;;;;14.07;4.88;;;14.60;99.90;;;;;;5005998;28;20117;-67
2023/07/06 00:19:57;;;;;;;14.35;5.28;;;14.60;99.90;;;;;;5003460;28;20116;-67
2023/07/06 00:22:23;;;;;;;14.27;5.07;;;14.70;99.90;;;;;;4999288;28;20030;-66
2023/07/06 00:24:49;;;;;;;16.58;5.03;;;14.70;99.90;;;;;;5009461;28;20057;-67
2023/07/06 00:27:17;;;;;;;12.23;4.32;;;14.70;99.90;;;;;;4992955;28;20026;-67
2023/07/06 00:29:56;;;;;;;9.68;4.75;;;14.70;99.90;;;;;;5001555;28;20060;-67
2023/07/06 00:32:28;;;;;;;12.13;5.10;;;14.70;99.90;;;;;;4999536;28;20101;-66
2023/07/06 00:34:59;;;;;;;15.70;5.65;;;14.60;99.90;;;;;;5007889;28;20500;-67
2023/07/06 00:37:26;;;;;;;20.67;5.88;;;14.70;99.90;;;;;;4999105;28;20463;-67
2023/07/06 00:39:52;;;;;;;13.32;5.32;;;14.60;99.90;;;;;;5003384;28;20035;-67
2023/07/06 00:42:19;;;;;;;12.00;5.50;;;14.70;99.90;;;;;;5006036;28;20037;-67
2023/07/06 00:44:58;;;;;;;17.40;6.10;;;14.60;99.90;;;;;;4994945;28;20053;-66
2023/07/06 00:47:33;;;;;;;16.88;6.32;;;14.60;99.90;;;;;;5006664;28;20069;-67
2023/07/06 00:50:06;;;;;;;15.27;5.90;;;14.60;99.90;;;;;;5002909;28;20542;-67
2023/07/06 00:52:33;;;;;;;15.98;6.35;;;14.60;99.90;;;;;;4997569;28;20118;-66
2023/07/06 00:55:01;;;;;;;18.48;5.97;;;14.60;99.90;;;;;;5009085;28;20030;-67
2023/07/06 00:57:28;;;;;;;16.13;6.05;;;14.60;99.90;;;;;;4998925;28;20030;-67
2023/07/06 00:59:54;;;;;;;18.80;6.75;;;14.50;99.90;;;;;;5002508;28;20030;-67
2023/07/06 01:02:20;;;;;;;19.17;6.85;;;14.50;99.90;;;;;;5005843;28;20253;-67
2023/07/06 01:04:46;;;;;;;24.10;6.00;;;14.50;99.90;;;;;;4996000;28;20038;-67
2023/07/06 01:07:20;;;;;;;17.75;6.43;;;14.50;99.90;;;;;;5008381;28;20026;-67
2023/07/06 01:09:47;;;;;;;16.83;5.65;;;14.50;99.90;;;;;;5001469;28;20040;-66
2023/07/06 01:12:14;;;;;;;17.88;6.30;;;14.40;99.90;;;;;;5000179;28;20113;-67
2023/07/06 01:14:41;;;;;;;17.48;6.35;;;14.40;99.90;;;;;;5008590;28;20029;-67
2023/07/06 01:17:23;;;;;;;22.23;7.38;;;14.40;99.90;;;;;;4995912;28;20037;-67
2023/07/06 01:20:21;;;;;;;20.23;7.20;;;14.40;99.90;;;;;;5003367;28;20038;-67
2023/07/06 01:23:22;;;;;;;14.70;5.90;;;14.40;99.90;;;;;;5008502;28;20037;-67
2023/07/06 01:26:12;;;;;;;22.05;7.47;;;14.40;99.90;;;;;;5001657;28;20050;-68
2023/07/06 01:29:00;;;;;;;23.13;7.45;;;14.40;99.90;;;;;;4996639;28;20031;-67
2023/07/06 01:31:45;;;;;;;21.52;7.05;;;14.40;99.90;;;;;;4985186;28;20076;-67
2023/07/06 01:34:33;;;;;;;19.27;6.82;;;14.50;99.90;;;;;;5000212;28;20038;-67
2023/07/06 01:37:17;;;;;;;17.25;6.10;;;14.50;99.90;;;;;;5008603;28;20030;-68
2023/07/06 01:39:42;;;;;;;24.63;7.20;;;14.50;99.90;;;;;;5000860;28;20038;-67
2023/07/06 01:42:12;;;;;;;19.63;5.97;;;14.60;99.90;;;;;;5000379;28;20092;-68
2023/07/06 01:44:41;;;;;;;15.82;6.45;;;14.60;99.90;;;;;;5007965;28;20099;-67
2023/07/06 01:47:08;;;;;;;18.42;6.47;;;14.60;99.90;;;;;;4979644;28;20038;-67
2023/07/06 01:49:34;;;;;;;20.63;7.70;;;14.50;99.90;;;;;;5005037;28;20117;-67
2023/07/06 01:52:20;;;;;;;19.88;6.60;;;14.60;99.90;;;;;;5002522;28;20506;-66
2023/07/06 01:54:58;;;;;;;23.55;6.57;;;14.60;99.90;;;;;;4995276;28;20588;-67
2023/07/06 01:57:42;;;;;;;17.67;6.68;;;14.50;99.90;;;;;;5006306;28;20030;-67
2023/07/06 02:00:13;;;;;;;20.67;6.60;;;14.60;99.90;;;;;;5003695;28;20032;-67
2023/07/06 02:02:42;;;;;;;18.38;6.65;;;14.60;99.90;;;;;;4998712;28;20117;-67
2023/07/06 02:05:08;;;;;;;21.48;6.55;;;14.60;99.90;;;;;;4983223;28;20474;-67
2023/07/06 02:07:35;;;;;;;24.80;7.40;;;14.70;99.90;;;;;;5008782;28;20030;-67
2023/07/06 02:10:01;;;;;;;21.23;6.57;;;14.70;99.90;;;;;;5006602;28;20196;-67
2023/07/06 02:12:26;;;;;;;18.83;6.03;;;14.70;99.90;;;;;;5001718;28;20120;-67
2023/07/06 02:14:53;;;;;;;23.02;6.20;;;14.70;99.90;;;;;;5011696;28;20385;-67
2023/07/06 02:17:20;;;;;;;23.48;6.78;;;14.70;99.90;;;;;;5000680;28;20026;-67
2023/07/06 02:19:45;;;;;;;24.65;7.20;;;14.70;99.90;;;;;;5006548;28;20121;-67
2023/07/06 02:22:11;;;;;;;20.60;6.60;;;14.70;99.90;;;;;;5007661;28;20116;-67
2023/07/06 02:24:38;;;;;;;21.45;6.57;;;14.70;99.90;;;;;;4999659;28;20085;-68
2023/07/06 02:27:05;;;;;;;18.77;6.05;;;14.70;99.90;;;;;;5011869;28;20030;-68
2023/07/06 02:29:33;;;;;;;19.58;6.05;;;14.70;99.90;;;;;;5001654;28;20049;-67
2023/07/06 02:31:58;;;;;;;22.50;7.03;;;14.60;99.90;;;;;;5015351;28;20026;-67
2023/07/06 02:34:28;;;;;;;23.00;6.03;;;14.70;99.90;;;;;;5014987;28;20111;-67
2023/07/06 02:36:55;;;;;;;20.15;6.78;;;14.60;99.90;;;;;;5015047;28;20097;-67
2023/07/06 02:39:24;;;;;;;19.13;6.22;;;14.50;99.90;;;;;;5014802;28;20056;-67
2023/07/06 02:41:54;;;;;;;24.10;6.50;;;14.60;99.90;;;;;;4998647;28;20415;-67
2023/07/06 02:44:20;;;;;;;21.05;6.93;;;14.60;99.90;;;;;;4983535;28;20038;-67
2023/07/06 02:46:47;;;;;;;22.52;5.68;;;14.50;99.90;;;;;;4981536;28;20049;-67
2023/07/06 02:49:12;;;;;;;23.35;6.55;;;14.50;99.90;;;;;;4984150;28;20027;-67
2023/07/06 02:51:38;;;;;;;21.17;6.13;;;14.50;99.90;;;;;;4986622;28;20035;-67
2023/07/06 02:54:04;;;;;;;21.77;7.15;;;14.50;99.90;;;;;;4995514;28;20062;-67
2023/07/06 02:56:30;;;;;;;21.88;6.28;;;14.50;99.90;;;;;;4995305;28;20023;-67
2023/07/06 02:58:56;;;;;;;18.33;6.28;;;14.50;99.90;;;;;;4995127;28;20490;-67
2023/07/06 03:01:21;;;;;;;18.27;5.97;;;14.50;99.90;;;;;;4995001;28;20378;-67
2023/07/06 03:03:47;;;;;;;24.38;5.75;;;14.60;99.90;;;;;;4995173;28;20037;-67
2023/07/06 03:06:12;;;;;;;22.40;5.20;;;14.60;99.90;;;;;;4994436;28;20407;-67
2023/07/06 03:08:38;;;;;;;20.08;5.63;;;14.50;99.90;;;;;;4995101;28;20034;-67
2023/07/06 03:11:04;;;;;;;21.10;5.68;;;14.60;99.90;;;;;;4994424;28;20022;-67
2023/07/06 03:13:31;;;;;;;17.63;5.63;;;14.60;99.90;;;;;;4994391;28;20443;-67
2023/07/06 03:15:58;;;;;;;18.48;6.43;;;14.60;99.90;;;;;;4995052;28;20033;-67
2023/07/06 03:18:25;;;;;;;24.05;6.20;;;14.60;99.90;;;;;;4995041;28;20045;-68
2023/07/06 03:20:52;;;;;;;19.35;5.53;;;14.60;99.90;;;;;;4995078;28;20034;-68
2023/07/06 03:23:18;;;;;;;18.55;5.55;;;14.70;99.90;;;;;;4994600;28;20065;-67
2023/07/06 03:25:44;;;;;;;16.10;5.85;;;14.70;99.90;;;;;;4994585;28;20088;-67
2023/07/06 03:28:10;;;;;;;19.85;6.53;;;14.70;99.90;;;;;;4994647;28;20443;-68
2023/07/06 03:30:35;;;;;;;21.08;6.15;;;14.80;99.90;;;;;;4994512;28;20031;-67
2023/07/06 03:33:01;;;;;;;20.98;5.70;;;14.80;99.90;;;;;;4994475;28;20073;-67
2023/07/06 03:35:28;;;;;;;19.33;5.70;;;14.80;99.90;;;;;;4994657;28;20395;-67
2023/07/06 03:37:58;;;;;;;20.02;6.45;;;14.80;99.90;;;;;;4994520;28;20038;-67
2023/07/06 03:40:26;;;;;;;20.33;6.68;;;14.80;99.90;;;;;;4994113;28;20178;-68
2023/07/06 03:42:54;;;;;;;24.73;6.07;;;14.80;99.90;;;;;;4994233;28;20371;-67
2023/07/06 03:45:19;;;;;;;16.10;5.88;;;14.90;99.90;;;;;;4994355;28;20034;-68
2023/07/06 03:47:45;;;;;;;18.73;6.68;;;14.90;99.90;;;;;;4994114;28;20032;-68
2023/07/06 03:50:14;;;;;;;20.05;5.60;;;14.90;99.90;;;;;;4994169;28;20479;-67
2023/07/06 03:52:41;;;;;;;20.23;5.70;;;15.00;99.90;;;;;;4994373;28;20109;-68
2023/07/06 03:55:12;;;;;;;17.55;5.65;;;15.00;99.90;;;;;;4993881;28;20031;-68
2023/07/06 03:57:39;;;;;;;22.85;5.43;;;15.00;99.90;;;;;;4996010;28;20364;-67
2023/07/06 04:00:13;;;;;;;21.73;5.25;;;15.00;99.90;;;;;;4999639;28;20025;-67
2023/07/06 04:02:39;;;;;;;17.88;5.53;;;15.10;99.90;;;;;;4990585;28;20046;-67
2023/07/06 04:05:04;;;;;;;18.90;5.05;;;15.10;99.90;;;;;;4996111;28;20053;-67
2023/07/06 04:07:30;;;;;;;16.90;4.72;;;15.10;99.90;;;;;;5007102;28;20079;-67
2023/07/06 04:09:56;;;;;;;16.35;5.50;;;15.10;99.90;;;;;;4997308;28;20023;-68
2023/07/06 04:12:21;;;;;;;19.52;5.05;;;15.10;99.90;;;;;;5008247;28;20061;-68
2023/07/06 04:14:47;;;;;;;14.10;4.68;;;15.10;99.90;;;;;;5002875;28;20069;-68
2023/07/06 04:17:16;;;;;;;15.40;4.95;;;15.10;99.90;;;;;;5000840;28;20034;-67
2023/07/06 04:19:42;;;;;;;19.98;5.00;;;15.00;99.90;;;;;;5009846;28;20168;-67
2023/07/06 04:22:08;;;;;;;18.70;4.95;;;15.00;99.90;;;;;;4997625;28;20505;-67
2023/07/06 04:24:34;;;;;;;14.40;4.70;;;15.00;99.90;;;;;;5006114;28;20050;-67
2023/07/06 04:27:00;;;;;;;17.35;5.03;;;15.00;99.90;;;;;;5004048;28;20382;-68
2023/07/06 04:29:28;;;;;;;10.80;4.57;;;15.00;99.90;;;;;;4999518;28;20082;-68
2023/07/06 04:31:55;;;;;;;17.48;4.95;;;15.00;99.90;;;;;;5009975;28;20097;-67
2023/07/06 04:34:22;;;;;;;12.30;4.13;;;15.00;99.90;;;;;;4998453;28;20462;-68
2023/07/06 04:36:47;;;;;;;16.05;5.10;;;15.10;99.90;;;;;;5003513;28;20034;-67
2023/07/06 04:39:13;;;;;;;16.65;4.40;;;15.10;99.90;;;;;;4996502;28;20030;-67
2023/07/06 04:41:39;;;;;;;10.77;4.10;;;15.10;99.90;;;;;;4993647;28;20030;-67
2023/07/06 04:44:04;;;;;;;12.13;4.50;;;15.10;99.90;;;;;;4993850;28;20030;-67
2023/07/06 04:46:30;;;;;;;18.52;4.65;;;15.10;99.90;;;;;;4993355;28;20140;-67
2023/07/06 04:48:56;;;;;;;11.65;4.35;;;15.20;99.90;;;;;;4991856;28;20022;-67
2023/07/06 04:51:21;;;;;;;15.98;4.55;;;15.20;99.90;;;;;;4993524;28;20473;-68
2023/07/06 04:53:48;;;;;;;16.25;4.25;;;15.20;99.90;;;;;;4993373;28;20371;-67
2023/07/06 04:56:14;;;;;;;9.18;3.80;;;15.30;99.90;;;;;;4993526;28;20026;-67
2023/07/06 04:58:41;;;;;;;13.38;4.05;;;15.30;99.90;;;;;;4993718;28;20505;-67
2023/07/06 05:01:07;;;;;;;9.02;3.65;;;15.40;99.90;;;;;;4992904;28;20313;-67
2023/07/06 05:03:35;;;;;;;14.68;3.83;;;15.50;99.90;;;;;;4993323;28;20117;-67
2023/07/06 05:06:04;;;;;;;8.65;3.70;;;15.50;99.90;;;;;;4993031;28;20053;-67
2023/07/06 05:08:31;;;;;;;11.75;3.65;;;15.60;99.90;;;;;;4993283;28;20034;-67
2023/07/06 05:10:57;;;;;;;9.23;3.60;;;15.70;99.90;;;;;;4992586;28;20038;-67
2023/07/06 05:13:23;;;;;;;13.85;3.45;;;15.80;99.90;;;;;;4992940;28;20117;-68
2023/07/06 05:15:50;;;;;;;9.98;3.05;;;15.90;99.90;;;;;;4993407;28;20527;-67
2023/07/06 05:18:19;;;;;;;11.48;2.95;;;16.00;99.90;;;;;;4993203;28;20034;-66
2023/07/06 05:20:49;;;;;;;10.88;3.20;;;16.10;99.90;;;;;;4993135;28;20056;-67
2023/07/06 05:23:17;;;;;;;8.65;2.97;;;16.20;99.90;;;;;;4992638;28;20038;-67
2023/07/06 05:25:43;;;;;;;10.43;2.55;;;16.40;99.90;;;;;;4992831;28;20046;-67
2023/07/06 05:28:10;;;;;;;11.02;2.80;;;16.60;99.90;;;;;;4992992;28;20038;-67
2023/07/06 05:30:37;;;;;;;6.63;2.70;;;16.80;99.90;;;;;;4992721;28;20038;-67
2023/07/06 05:33:03;;;;;;;8.13;2.30;;;17.00;99.90;;;;;;4992974;28;20183;-67
2023/07/06 05:35:29;;;;;;;7.63;2.15;;;17.40;99.90;;;;;;4992766;28;20062;-67
2023/07/06 05:37:55;;;;;;;8.38;2.38;;;17.80;99.90;;;;;;4992786;28;20023;-67
2023/07/06 05:40:21;;;;;;;5.22;2.17;;;18.50;99.90;;;;;;4992939;28;20034;-68
2023/07/06 05:42:46;;;;;;;5.25;2.10;;;19.20;99.90;;;;;;4992653;28;20030;-67
2023/07/06 05:45:12;;;;;;;5.85;1.80;;;19.90;99.90;;;;;;4992494;28;20038;-66
2023/07/06 05:47:39;;;;;;;5.65;1.83;;;20.70;99.90;;;;;;4993163;28;20117;-67
2023/07/06 05:50:05;;;;;;;6.53;1.73;;;21.30;99.90;;;;;;4992799;28;20026;-67
2023/07/06 05:52:31;;;;;;;4.93;2.03;;;22.10;99.90;;;;;;4992677;28;20034;-68
2023/07/06 05:54:56;;;;;;;2.92;1.50;;;22.80;99.90;;;;;;4992606;28;20031;-68
2023/07/06 05:57:22;;;;;;;3.67;1.40;;;23.50;99.90;;;;;;4991778;28;20113;-67
2023/07/06 05:59:48;;;;;;;6.90;1.38;;;24.00;99.90;;;;;;4991786;28;20065;-67
2023/07/06 06:02:20;;;;;;;7.90;1.50;;;24.40;99.90;;;;;;4992228;28;20375;-67
2023/07/06 06:04:47;;;;;;;;;;;24.60;99.90;;;;;;4990898;28;20058;-67
2023/07/06 06:07:12;;;;;;;6.97;1.40;;;24.80;99.90;;;;;;4991748;28;19906;-68
2023/07/06 06:09:39;;;;;;;3.38;1.33;;;24.90;99.50;;;;;;4992357;28;20085;-68
2023/07/06 06:12:05;;;;;;;2.28;1.20;;;25.00;98.80;;;;;;4992642;28;20125;-66
2023/07/06 06:14:32;;;;;;;4.93;1.58;;;25.50;98.20;;;;;;4992296;28;20042;-67
2023/07/06 06:16:57;;;;;;;4.40;1.50;;;25.50;98.10;;;;;;4992635;28;20117;-66
2023/07/06 06:19:23;;;;;;;2.20;1.25;;;25.30;97.80;;;;;;4992798;28;20121;-67
2023/07/06 06:21:49;;;;;;;6.72;1.30;;;25.10;97.60;;;;;;4992653;28;20027;-66
2023/07/06 06:24:15;;;;;;;5.78;1.85;;;25.20;97.90;;;;;;4991841;28;20469;-67
2023/07/06 06:26:42;;;;;;;6.20;1.52;;;25.50;97.40;;;;;;4992268;28;20041;-67
2023/07/06 06:29:09;;;;;;;5.50;1.70;;;25.80;96.70;;;;;;4992457;28;20065;-67
2023/07/06 06:31:36;;;;;;;8.10;1.90;;;26.20;96.50;;;;;;4991481;28;20030;-67
2023/07/06 06:34:02;;;;;;;5.18;1.50;;;26.70;96.40;;;;;;4991750;28;20505;-67
2023/07/06 06:36:27;;;;;;;8.70;1.80;;;27.40;96.00;;;;;;4992411;28;20030;-66
2023/07/06 06:38:54;;;;;;;7.03;2.22;;;28.10;95.50;;;;;;4992329;28;20039;-66
2023/07/06 06:41:21;;;;;;;5.63;1.98;;;28.70;94.60;;;;;;4991842;28;20035;-67
2023/07/06 06:43:47;;;;;;;7.75;1.90;;;29.00;94.30;;;;;;4992119;28;20104;-67
2023/07/06 06:46:13;;;;;;;6.43;1.73;;;29.30;93.90;;;;;;4991600;28;20101;-66
2023/07/06 06:48:39;;;;;;;8.93;1.98;;;28.60;94.60;;;;;;4993653;28;20034;-66
2023/07/06 06:51:08;;;;;;;7.50;1.80;;;28.00;94.90;;;;;;4995086;28;20081;-67
2023/07/06 06:53:34;;;;;;;7.55;2.10;;;27.70;95.10;;;;;;4995945;28;20029;-67
2023/07/06 06:56:02;;;;;;;7.72;1.65;;;27.60;95.10;;;;;;4995552;28;20033;-67
2023/07/06 06:58:28;;;;;;;4.22;1.60;;;27.60;94.60;;;;;;4995791;28;20042;-66
2023/07/06 07:00:58;;;;;;;4.03;1.77;;;27.70;94.70;;;;;;4995716;28;20324;-66
2023/07/06 07:03:23;;;;;;;3.85;1.35;;;28.20;94.10;;;;;;4995542;28;20049;-67
2023/07/06 07:06:01;;;;;;;6.93;1.65;;;28.50;93.70;;;;;;4995615;28;20376;-66
2023/07/06 07:08:28;;;;;;;8.73;1.50;;;28.90;92.70;;;;;;4994761;28;20031;-67
2023/07/06 07:10:56;;;;;;;9.85;3.00;;;28.80;92.20;;;;;;4995851;28;20038;-67
2023/07/06 07:13:22;;;;;;;6.63;1.75;;;28.60;92.20;;;;;;4995752;28;20057;-67
2023/07/06 07:15:49;;;;;;;4.43;1.77;;;28.50;92.50;;;;;;4994463;28;20077;-67
2023/07/06 07:18:15;;;;;;;4.50;1.40;;;28.70;92.10;;;;;;4994177;28;20032;-67
2023/07/06 07:20:42;;;;;;;5.45;1.50;;;28.80;91.90;;;;;;4993847;28;20458;-67
2023/07/06 07:23:08;;;;;;;5.53;1.30;;;29.30;91.80;;;;;;5001458;28;20493;-67
2023/07/06 07:25:33;;;;;;;4.60;1.25;;;29.50;90.80;;;;;;4995339;28;20046;-67
2023/07/06 07:27:59;;;;;;;5.68;1.90;;;29.30;90.90;;;;;;5003180;28;20022;-67
2023/07/06 07:30:26;;;;;;;6.72;1.60;;;29.30;90.80;;;;;;4996585;28;20031;-67
2023/07/06 07:32:51;;;;;;;5.82;1.50;;;29.20;90.80;;;;;;4998721;28;20078;-67
2023/07/06 07:35:18;;;;;;;7.90;2.08;;;29.50;90.30;;;;;;5002037;28;20042;-67
2023/07/06 07:37:50;;;;;;;4.50;1.30;;;29.50;90.30;;;;;;5001199;28;20109;-67
2023/07/06 07:40:17;;;;;;;4.00;1.30;;;29.30;90.20;;;;;;5004623;28;20023;-67
2023/07/06 07:42:46;;;;;;;8.68;1.38;;;29.00;90.50;;;;;;5010791;28;20078;-66
2023/07/06 07:45:13;;;;;;;3.47;1.60;;;28.70;91.20;;;;;;5001383;28;20053;-66
2023/07/06 07:47:39;;;;;;;2.92;1.27;;;28.70;91.10;;;;;;5003226;28;20121;-66
2023/07/06 07:50:06;;;;;;;4.15;1.35;;;28.70;90.50;;;;;;5007709;28;20490;-67
2023/07/06 07:52:32;;;;;;;4.53;1.50;;;28.40;90.30;;;;;;5011206;28;20042;-66
2023/07/06 07:54:57;;;;;;;6.85;1.40;;;28.00;90.90;;;;;;4999627;28;20034;-66
2023/07/06 07:57:23;;;;;;;7.15;1.50;;;27.70;91.70;;;;;;5009475;28;20033;-66
2023/07/06 07:59:48;;;;;;;4.97;1.30;;;27.70;91.90;;;;;;5009122;28;20042;-66
2023/07/06 08:02:14;;;;;;;4.97;1.30;;;27.70;91.70;;;;;;4975346;28;20031;-66
2023/07/06 08:04:39;;;;;;;5.80;1.65;;;27.60;91.80;;;;;;4984070;28;20029;-66
2023/07/06 08:07:05;;;;;;;5.45;1.20;;;27.50;92.20;;;;;;5000528;28;20034;-66
2023/07/06 08:09:31;;;;;;;6.15;1.42;;;27.40;91.70;;;;;;4994147;28;20034;-67
2023/07/06 08:11:56;;;;;;;2.92;1.30;;;26.80;92.70;;;;;;4994088;28;20061;-68
2023/07/06 08:14:38;;;;;;;5.72;1.73;;;26.50;92.80;;;;;;4994469;28;20037;-67
2023/07/06 08:17:04;;;;;;;;;;;26.20;93.90;;;;;;4994566;28;20069;-65
2023/07/06 08:19:32;;;;;;;8.45;1.73;;;26.20;94.00;;;;;;4994135;28;19945;-67
2023/07/06 08:22:00;;;;;;;8.82;1.90;;;26.30;94.30;;;;;;4994062;28;20038;-67
2023/07/06 08:24:27;;;;;;;6.30;1.52;;;26.30;94.00;;;;;;4993893;28;20394;-67
2023/07/06 08:26:54;;;;;;;5.53;1.38;;;26.30;94.90;;;;;;5003179;28;20056;-67
2023/07/06 08:29:19;;;;;;;4.50;1.42;;;26.90;94.10;;;;;;4987978;28;20080;-67
2023/07/06 08:31:45;;;;;;;4.10;1.35;;;27.40;92.10;;;;;;4997123;28;20022;-67
2023/07/06 08:34:12;;;;;;;6.05;2.25;;;27.50;92.10;;;;;;4998286;28;20037;-67
2023/07/06 08:36:38;;;;;;;6.90;1.48;;;28.00;91.10;;;;;;4999038;28;20034;-66
2023/07/06 08:39:05;;;;;;;9.43;1.80;;;28.30;91.10;;;;;;4997594;28;20026;-66
2023/07/06 08:41:42;;;;;;;6.68;1.60;;;28.80;90.80;;;;;;5010156;28;20045;-66
2023/07/06 08:44:12;;;;;;;3.53;1.80;;;28.90;90.30;;;;;;5000377;28;20088;-67
2023/07/06 08:46:45;;;;;;;10.40;1.77;;;29.30;90.60;;;;;;4988835;28;20086;-66
2023/07/06 08:49:32;;;;;;;7.55;2.08;;;30.10;90.40;;;;;;4998385;28;20030;-66
2023/07/06 08:52:05;;;;;;;5.40;1.70;;;30.80;90.10;;;;;;5002356;28;20042;-66
2023/07/06 08:54:37;;;;;;;5.97;2.08;;;31.10;88.80;;;;;;5009705;28;20368;-67
2023/07/06 08:57:13;;;;;;;7.45;1.70;;;30.90;89.30;;;;;;5005726;28;20081;-66
2023/07/06 08:59:49;;;;;;;6.97;2.00;;;30.70;89.10;;;;;;4992443;28;20035;-67
2023/07/06 09:02:23;;;;;;;5.75;1.92;;;31.00;87.70;;;;;;5002393;28;20021;-67
2023/07/06 09:04:52;;;;;;;5.43;1.48;;;31.70;86.60;;;;;;4991267;28;20498;-67
2023/07/06 09:07:22;;;;;;;4.78;1.23;;;32.30;86.20;;;;;;4992973;28;20042;-67
2023/07/06 09:09:48;;;;;;;5.83;1.70;;;32.50;82.30;;;;;;4993272;28;20088;-66
2023/07/06 09:12:24;;;;;;;2.65;1.15;;;32.20;82.60;;;;;;4992508;28;20053;-66
2023/07/06 09:14:56;;;;;;;3.45;1.40;;;32.40;81.30;;;;;;4994077;28;20034;-66
2023/07/06 09:17:21;;;;;;;;;;;32.70;81.00;;;;;;5002110;28;20030;-67
2023/07/06 09:19:47;;;;;;;5.80;1.67;;;33.00;80.80;;;;;;5008391;28;20321;-67
2023/07/06 09:22:13;;;;;;;3.20;1.35;;;33.20;81.00;;;;;;5006386;28;20152;-66
2023/07/06 09:24:46;;;;;;;3.95;1.23;;;33.60;80.20;;;;;;4991632;28;20491;-66
2023/07/06 09:27:23;;;;;;;5.35;1.70;;;34.10;79.80;;;;;;4993104;28;20046;-66
2023/07/06 09:30:29;;;;;;;8.95;3.08;;;34.40;78.80;;;;;;4993302;28;20043;-66
2023/07/06 09:33:04;;;;;;;7.88;1.90;;;34.80;79.10;;;;;;4973818;28;20027;-66
2023/07/06 09:35:30;;;;;;;4.40;1.73;;;35.10;77.40;;;;;;4991763;28;20061;-66
2023/07/06 09:37:57;;;;;;;7.47;1.88;;;34.80;77.90;;;;;;4997541;28;20038;-65
2023/07/06 09:40:30;;;;;;;6.60;1.95;;;34.40;78.10;;;;;;4997947;28;20037;-66
2023/07/06 09:42:56;;;;;;;8.93;2.47;;;34.00;78.80;;;;;;5011507;28;20042;-65
2023/07/06 09:45:27;;;;;;;8.73;1.90;;;33.70;78.90;;;;;;5010628;28;20128;-66
2023/07/06 09:47:56;;;;;;;9.05;2.53;;;33.10;79.60;;;;;;5010790;28;20038;-66
2023/07/06 09:50:32;;;;;;;5.43;1.90;;;33.00;79.50;;;;;;5012603;28;20049;-66
2023/07/06 09:52:59;;;;;;;7.68;2.10;;;32.50;79.30;;;;;;5012040;28;20037;-66
2023/07/06 09:55:29;;;;;;;4.03;1.48;;;32.20;79.90;;;;;;5011956;28;20075;-65
2023/07/06 09:57:59;;;;;;;7.03;1.95;;;32.30;78.80;;;;;;5000732;28;20078;-66
2023/07/06 10:00:33;;;;;;;2.97;1.70;;;32.40;79.00;;;;;;4992995;28;20470;-66
2023/07/06 10:03:17;;;;;;;6.00;1.85;;;32.10;80.60;;;;;;4992723;28;20030;-66
2023/07/06 10:05:53;;;;;;;8.93;1.70;;;32.10;81.60;;;;;;4992369;28;20043;-66
2023/07/06 10:08:38;;;;;;;6.00;1.70;;;31.90;79.60;;;;;;4993523;28;20073;-66
2023/07/06 10:11:28;;;;;;;7.72;1.67;;;31.60;78.70;;;;;;4992701;28;20033;-66
2023/07/06 10:13:56;;;;;;;7.82;2.00;;;31.60;80.50;;;;;;4989899;28;20426;-67
2023/07/06 10:16:56;;;;;;;4.93;1.60;;;31.90;78.90;;;;;;4992634;28;20126;-66
2023/07/06 10:19:31;;;;;;;5.43;2.00;;;31.90;79.90;;;;;;4992709;28;20564;-66
2023/07/06 10:21:56;;;;;;;5.03;1.50;;;31.90;79.80;;;;;;4989520;28;20034;-65
2023/07/06 10:24:49;;;;;;;3.60;1.20;;;32.20;77.70;;;;;;4994906;28;20054;-66
2023/07/06 10:27:22;;;;;;;5.38;2.28;;;32.00;77.70;;;;;;4993353;28;20116;-66
2023/07/06 10:29:56;;;;;;;5.70;1.60;;;32.10;78.40;;;;;;4988858;28;20113;-66
2023/07/06 10:32:32;;;;;;;5.68;1.67;;;33.00;78.60;;;;;;4985116;28;20118;-66
2023/07/06 10:35:13;;;;;;;4.03;1.40;;;33.30;75.80;;;;;;4984309;28;20035;-65
2023/07/06 10:37:39;;;;;;;5.30;1.65;;;33.50;73.70;;;;;;4988990;28;20030;-65
2023/07/06 10:40:28;;;;;;;3.65;1.50;;;33.20;74.60;;;;;;4985151;28;20031;-66
2023/07/06 10:43:08;;;;;;;5.20;1.00;;;33.40;75.70;;;;;;4986740;28;20081;-65
2023/07/06 10:45:34;;;;;;;3.17;1.00;;;33.30;71.80;;;;;;4986449;28;20030;-65
2023/07/06 10:48:14;;;;;;;3.38;0.90;;;33.20;73.50;;;;;;4995257;28;20034;-66
2023/07/06 10:50:49;;;;;;;0.50;0.40;;;33.50;72.10;;;;;;4986002;28;20023;-66
2023/07/06 10:53:25;;;;;;;3.25;0.77;;;33.50;67.70;;;;;;4986295;28;20125;-66
2023/07/06 10:56:02;;;;;;;6.10;1.55;;;33.30;70.00;;;;;;4986314;28;20026;-65
2023/07/06 10:58:33;;;;;;;4.15;1.23;;;33.50;72.30;;;;;;4988040;28;20026;-66
2023/07/06 11:01:07;;;;;;;3.53;0.75;;;33.50;71.90;;;;;;4986975;28;20097;-65
2023/07/06 11:03:32;;;;;;;5.55;0.98;;;33.40;70.10;;;;;;4990977;28;20038;-66
2023/07/06 11:06:07;;;;;;;3.45;1.13;;;32.90;70.40;;;;;;5013383;28;20042;-66
2023/07/06 11:09:04;;;;;;;4.72;1.30;;;33.10;71.00;;;;;;5009951;28;20104;-66
2023/07/06 11:11:56;;;;;;;5.45;1.55;;;33.80;70.80;;;;;;4998674;28;20042;-64
2023/07/06 11:14:31;;;;;;;4.35;1.30;;;34.20;70.60;;;;;;4990443;28;20055;-65
2023/07/06 11:17:02;;;;;;;6.22;1.63;;;33.50;71.70;;;;;;5004209;28;20057;-65
2023/07/06 11:19:36;;;;;;;7.07;1.38;;;33.10;74.10;;;;;;5012864;28;20021;-66
2023/07/06 11:22:09;;;;;;;7.22;1.55;;;32.70;74.00;;;;;;4995409;28;20105;-66
2023/07/06 11:24:41;;;;;;;5.47;1.33;;;31.80;74.80;;;;;;4995148;28;20065;-65
2023/07/06 11:27:32;;;;;;;4.25;1.60;;;31.70;74.70;;;;;;5012676;28;20034;-66
2023/07/06 11:30:22;;;;;;;3.10;0.87;;;32.40;74.70;;;;;;4992524;28;20026;-65
2023/07/06 11:33:06;;;;;;;6.70;2.45;;;33.00;72.90;;;;;;4995585;28;20038;-66
2023/07/06 11:35:41;;;;;;;3.97;1.60;;;33.40;71.80;;;;;;4995797;28;20114;-66
2023/07/06 11:38:26;;;;;;;3.90;0.80;;;34.20;70.70;;;;;;4997051;28;20050;-64
2023/07/06 11:41:28;;;;;;;4.78;1.27;;;34.20;67.30;;;;;;4996248;28;20035;-65
2023/07/06 11:44:40;;;;;;;3.60;1.10;;;34.20;66.70;;;;;;4995123;28;20026;-65
2023/07/06 11:47:40;;;;;;;2.08;1.30;;;34.50;67.10;;;;;;4983703;28;20022;-66
2023/07/06 11:50:12;;;;;;;4.60;1.38;;;34.60;67.90;;;;;;4994730;28;20049;-66
2023/07/06 11:52:44;;;;;;;6.25;1.00;;;34.80;67.60;;;;;;4994756;28;20030;-66
2023/07/06 11:55:31;;;;;;;3.00;0.57;;;35.00;66.70;;;;;;4994715;28;20030;-65
2023/07/06 11:58:29;;;;;;;2.85;0.80;;;34.80;66.40;;;;;;5009371;28;20117;-66
2023/07/06 12:01:00;;;;;;;2.17;0.90;;;34.80;66.80;;;;;;5005023;28;20085;-66
2023/07/06 12:03:28;;;;;;;0.90;0.60;;;34.60;66.00;;;;;;4994902;28;20038;-65
2023/07/06 12:05:58;;;;;;;0.93;0.55;;;34.30;66.20;;;;;;4994198;28;20386;-66
2023/07/06 12:08:37;;;;;;;1.63;0.80;;;33.30;65.20;;;;;;4994948;28;20521;-66
2023/07/06 12:11:07;;;;;;;3.38;0.80;;;32.40;67.60;;;;;;5008991;28;20033;-66
2023/07/06 12:13:48;;;;;;;5.80;0.82;;;32.20;67.60;;;;;;5011902;28;20037;-66
2023/07/06 12:16:27;;;;;;;3.42;1.10;;;31.80;70.00;;;;;;5002883;28;20034;-66
2023/07/06 12:19:03;;;;;;;3.97;1.10;;;31.70;71.80;;;;;;4978076;28;20084;-66
2023/07/06 12:21:31;;;;;;;4.30;1.00;;;32.00;71.30;;;;;;5000888;28;20033;-65
2023/07/06 12:24:03;;;;;;;2.08;0.70;;;32.40;72.10;;;;;;5013379;28;20054;-65
2023/07/06 12:26:29;;;;;;;;;;;32.30;67.50;;;;;;4997814;28;20069;-65
2023/07/06 12:28:59;;;;;;;3.20;0.88;;;31.80;70.20;;;;;;4995353;28;20348;-65
2023/07/06 12:31:30;;;;;;;3.35;1.10;;;30.90;69.60;;;;;;4992141;28;20446;-64
2023/07/06 12:34:00;;;;;;;1.75;0.95;;;30.40;72.20;;;;;;4992824;28;20027;-65
2023/07/06 12:36:33;;;;;;;4.38;0.90;;;30.60;73.90;;;;;;4993398;28;20038;-65
2023/07/06 12:39:00;;;;;;;4.50;1.08;;;30.60;71.90;;;;;;4993408;28;20041;-66
2023/07/06 12:41:32;;;;;;;2.88;0.90;;;31.00;72.60;;;;;;4993653;28;20026;-66
2023/07/06 12:43:57;;;;;;;3.28;1.20;;;30.50;71.50;;;;;;4995246;28;20053;-65
2023/07/06 12:46:23;;;;;;;3.45;0.80;;;30.30;72.30;;;;;;5001000;28;20080;-66
2023/07/06 12:48:53;;;;;;;3.88;1.10;;;30.10;72.60;;;;;;5000557;28;20185;-65
2023/07/06 12:51:23;;;;;;;2.38;0.93;;;29.50;71.30;;;;;;4992035;28;20027;-66
2023/07/06 12:53:50;;;;;;;2.35;1.05;;;29.10;73.20;;;;;;4993112;28;20057;-65
2023/07/06 12:56:19;;;;;;;1.70;0.82;;;28.90;74.00;;;;;;4992630;28;20049;-65
2023/07/06 12:58:52;;;;;;;1.92;1.00;;;28.90;72.80;;;;;;4992686;28;20030;-65